sensor_id;sensor_type;location;lat;lon;timestamp;temperature;humidity
11599;DHT22;5855;48.840;9.188;2022-12-07T00:01:26;3.90;99.90
11599;DHT22;5855;48.840;9.188;2022-12-07T00:03:54;4.10;99.90
11599;DHT22;5855;48.840;9.188;2022-12-07T00:06:22;4.00;99.90
11599;DHT22;5855;48.840;9.188;2022-12-07T00:08:51;3.90;99.90
11599;DHT22;5855;48.840;9.188;2022-12-07T00:11:19;3.90;99.90
11599;DHT22;5855;48.840;9.188;2022-12-07T00:13:47;3.90;99.90
11599;DHT22;5855;48.840;9.188;2022-12-07T00:16:15;3.90;99.90
11599;DHT22;5855;48.840;9.188;2022-12-07T00:18:43;3.90;99.90
11599;DHT22;5855;48.840;9.188;2022-12-07T00:21:12;3.80;99.90
11599;DHT22;5855;48.840;9.188;2022-12-07T00:23:40;3.90;99.90
11599;DHT22;5855;48.840;9.188;2022-12-07T00:26:10;3.90;99.90
11599;DHT22;5855;48.840;9.188;2022-12-07T00:28:37;3.90;99.90
11599;DHT22;5855;48.840;9.188;2022-12-07T00:31:06;3.80;99.90
11599;DHT22;5855;48.840;9.188;2022-12-07T00:33:33;3.80;99.90
11599;DHT22;5855;48.840;9.188;2022-12-07T00:36:02;3.80;99.90
11599;DHT22;5855;48.840;9.188;2022-12-07T00:38:30;3.80;99.90
11599;DHT22;5855;48.840;9.188;2022-12-07T00:40:57;3.80;99.90
11599;DHT22;5855;48.840;9.188;2022-12-07T00:43:25;3.90;99.90
11599;DHT22;5855;48.840;9.188;2022-12-07T00:45:52;3.80;99.90
11599;DHT22;5855;48.840;9.188;2022-12-07T00:48:20;3.90;99.90
11599;DHT22;5855;48.840;9.188;2022-12-07T00:50:47;3.90;99.90
11599;DHT22;5855;48.840;9.188;2022-12-07T00:53:14;3.90;99.90
11599;DHT22;5855;48.840;9.188;2022-12-07T00:55:41;3.80;99.90
11599;DHT22;5855;48.840;9.188;2022-12-07T00:58:08;3.80;99.90
11599;DHT22;5855;48.840;9.188;2022-12-07T01:00:37;3.70;99.90
11599;DHT22;5855;48.840;9.188;2022-12-07T01:03:05;3.70;99.90
11599;DHT22;5855;48.840;9.188;2022-12-07T01:05:32;3.60;99.90
11599;DHT22;5855;48.840;9.188;2022-12-07T01:07:59;3.60;99.90
11599;DHT22;5855;48.840;9.188;2022-12-07T01:10:26;3.50;99.90
11599;DHT22;5855;48.840;9.188;2022-12-07T01:12:54;3.50;99.90
11599;DHT22;5855;48.840;9.188;2022-12-07T01:15:20;3.50;99.90
11599;DHT22;5855;48.840;9.188;2022-12-07T01:17:49;3.50;99.90
11599;DHT22;5855;48.840;9.188;2022-12-07T01:20:15;3.50;99.90
11599;DHT22;5855;48.840;9.188;2022-12-07T01:22:43;3.60;99.90
11599;DHT22;5855;48.840;9.188;2022-12-07T01:25:11;3.50;99.90
11599;DHT22;5855;48.840;9.188;2022-12-07T01:27:37;3.50;99.90
11599;DHT22;5855;48.840;9.188;2022-12-07T01:30:06;3.40;99.90
11599;DHT22;5855;48.840;9.188;2022-12-07T01:32:33;3.50;99.90
11599;DHT22;5855;48.840;9.188;2022-12-07T01:35:01;3.40;99.90
11599;DHT22;5855;48.840;9.188;2022-12-07T01:37:28;3.40;99.90
11599;DHT22;5855;48.840;9.188;2022-12-07T01:39:59;3.50;99.90
11599;DHT22;5855;48.840;9.188;2022-12-07T01:42:26;3.40;99.90
11599;DHT22;5855;48.840;9.188;2022-12-07T01:47:56;3.50;99.90
11599;DHT22;5855;48.840;9.188;2022-12-07T01:50:27;3.50;99.90
11599;DHT22;5855;48.840;9.188;2022-12-07T01:52:59;3.50;99.90
11599;DHT22;5855;48.840;9.188;2022-12-07T01:55:27;3.50;99.90
11599;DHT22;5855;48.840;9.188;2022-12-07T01:57:55;3.50;99.90
11599;DHT22;5855;48.840;9.188;2022-12-07T02:00:23;3.60;99.90
11599;DHT22;5855;48.840;9.188;2022-12-07T02:02:53;3.60;99.90
11599;DHT22;5855;48.840;9.188;2022-12-07T02:05:20;3.50;99.90
11599;DHT22;5855;48.840;9.188;2022-12-07T02:07:51;3.40;99.90
11599;DHT22;5855;48.840;9.188;2022-12-07T02:10:21;3.40;99.90
11599;DHT22;5855;48.840;9.188;2022-12-07T02:12:50;3.30;99.90
11599;DHT22;5855;48.840;9.188;2022-12-07T02:15:20;3.30;99.90
11599;DHT22;5855;48.840;9.188;2022-12-07T02:17:56;3.30;99.90
11599;DHT22;5855;48.840;9.188;2022-12-07T02:20:28;3.30;99.90
11599;DHT22;5855;48.840;9.188;2022-12-07T02:29:17;3.40;99.90
11599;DHT22;5855;48.840;9.188;2022-12-07T02:31:49;3.40;99.90
11599;DHT22;5855;48.840;9.188;2022-12-07T02:34:22;3.40;99.90
11599;DHT22;5855;48.840;9.188;2022-12-07T02:36:55;3.40;99.90
11599;DHT22;5855;48.840;9.188;2022-12-07T02:39:30;3.50;99.90
11599;DHT22;5855;48.840;9.188;2022-12-07T02:42:04;3.40;99.90
11599;DHT22;5855;48.840;9.188;2022-12-07T02:44:34;3.40;99.90
11599;DHT22;5855;48.840;9.188;2022-12-07T02:47:04;3.40;99.90
11599;DHT22;5855;48.840;9.188;2022-12-07T02:49:32;3.50;99.90
11599;DHT22;5855;48.840;9.188;2022-12-07T02:51:59;3.50;99.90
11599;DHT22;5855;48.840;9.188;2022-12-07T02:54:26;3.50;99.90
11599;DHT22;5855;48.840;9.188;2022-12-07T02:56:59;3.50;99.90
11599;DHT22;5855;48.840;9.188;2022-12-07T02:59:39;3.40;99.90
11599;DHT22;5855;48.840;9.188;2022-12-07T03:02:17;3.40;99.90
11599;DHT22;5855;48.840;9.188;2022-12-07T03:04:54;3.40;99.90
11599;DHT22;5855;48.840;9.188;2022-12-07T03:07:29;3.40;99.90
11599;DHT22;5855;48.840;9.188;2022-12-07T03:10:03;3.30;99.90
11599;DHT22;5855;48.840;9.188;2022-12-07T03:12:41;3.40;99.90
11599;DHT22;5855;48.840;9.188;2022-12-07T03:15:15;3.40;99.90
11599;DHT22;5855;48.840;9.188;2022-12-07T03:17:45;3.50;99.90
11599;DHT22;5855;48.840;9.188;2022-12-07T03:20:15;3.50;99.90
11599;DHT22;5855;48.840;9.188;2022-12-07T03:22:44;3.40;99.90
11599;DHT22;5855;48.840;9.188;2022-12-07T03:25:15;3.40;99.90
11599;DHT22;5855;48.840;9.188;2022-12-07T03:27:48;3.40;99.90
11599;DHT22;5855;48.840;9.188;2022-12-07T03:30:18;3.30;99.90
11599;DHT22;5855;48.840;9.188;2022-12-07T03:32:49;3.40;99.90
11599;DHT22;5855;48.840;9.188;2022-12-07T03:35:20;3.30;99.90
11599;DHT22;5855;48.840;9.188;2022-12-07T03:37:51;3.40;99.90
11599;DHT22;5855;48.840;9.188;2022-12-07T03:40:23;3.30;99.90
11599;DHT22;5855;48.840;9.188;2022-12-07T03:42:52;3.40;99.90
11599;DHT22;5855;48.840;9.188;2022-12-07T03:45:23;3.30;99.90
11599;DHT22;5855;48.840;9.188;2022-12-07T03:48:01;3.30;99.90
11599;DHT22;5855;48.840;9.188;2022-12-07T03:50:34;3.30;99.90
11599;DHT22;5855;48.840;9.188;2022-12-07T03:53:08;3.20;99.90
11599;DHT22;5855;48.840;9.188;2022-12-07T03:55:40;3.20;99.90
11599;DHT22;5855;48.840;9.188;2022-12-07T03:58:11;3.20;99.90
11599;DHT22;5855;48.840;9.188;2022-12-07T04:00:40;3.20;99.90
11599;DHT22;5855;48.840;9.188;2022-12-07T04:03:08;3.20;99.90
11599;DHT22;5855;48.840;9.188;2022-12-07T04:05:35;3.10;99.90
11599;DHT22;5855;48.840;9.188;2022-12-07T04:08:02;3.10;99.90
11599;DHT22;5855;48.840;9.188;2022-12-07T04:10:29;3.00;99.90
11599;DHT22;5855;48.840;9.188;2022-12-07T04:12:56;3.00;99.90
11599;DHT22;5855;48.840;9.188;2022-12-07T04:15:23;2.90;99.90
11599;DHT22;5855;48.840;9.188;2022-12-07T04:17:51;2.90;99.90
11599;DHT22;5855;48.840;9.188;2022-12-07T04:20:18;2.90;99.90
11599;DHT22;5855;48.840;9.188;2022-12-07T04:22:45;2.80;99.90
11599;DHT22;5855;48.840;9.188;2022-12-07T04:25:11;2.70;99.90
11599;DHT22;5855;48.840;9.188;2022-12-07T04:27:38;2.70;99.90
11599;DHT22;5855;48.840;9.188;2022-12-07T04:30:06;2.60;99.90
11599;DHT22;5855;48.840;9.188;2022-12-07T04:32:35;2.60;99.90
11599;DHT22;5855;48.840;9.188;2022-12-07T04:35:04;2.60;99.90
11599;DHT22;5855;48.840;9.188;2022-12-07T04:37:31;2.60;99.90
11599;DHT22;5855;48.840;9.188;2022-12-07T04:39:58;2.60;99.90
11599;DHT22;5855;48.840;9.188;2022-12-07T04:42:25;2.60;99.90
11599;DHT22;5855;48.840;9.188;2022-12-07T04:44:52;2.60;99.90
11599;DHT22;5855;48.840;9.188;2022-12-07T04:47:19;2.60;99.90
11599;DHT22;5855;48.840;9.188;2022-12-07T04:49:46;2.60;99.90
11599;DHT22;5855;48.840;9.188;2022-12-07T04:52:14;2.60;99.90
11599;DHT22;5855;48.840;9.188;2022-12-07T04:54:41;2.50;99.90
11599;DHT22;5855;48.840;9.188;2022-12-07T04:57:08;2.40;99.90
11599;DHT22;5855;48.840;9.188;2022-12-07T04:59:36;2.40;99.90
11599;DHT22;5855;48.840;9.188;2022-12-07T05:02:03;2.40;99.90
11599;DHT22;5855;48.840;9.188;2022-12-07T05:04:30;2.40;99.90
11599;DHT22;5855;48.840;9.188;2022-12-07T05:06:57;2.30;99.90
11599;DHT22;5855;48.840;9.188;2022-12-07T05:09:25;2.30;99.90
11599;DHT22;5855;48.840;9.188;2022-12-07T05:11:52;2.30;99.90
11599;DHT22;5855;48.840;9.188;2022-12-07T05:14:20;2.20;99.90
11599;DHT22;5855;48.840;9.188;2022-12-07T05:16:48;2.20;99.90
11599;DHT22;5855;48.840;9.188;2022-12-07T05:19:16;2.30;99.90
11599;DHT22;5855;48.840;9.188;2022-12-07T05:21:42;2.30;99.90
11599;DHT22;5855;48.840;9.188;2022-12-07T05:24:11;2.20;99.90
11599;DHT22;5855;48.840;9.188;2022-12-07T05:26:40;2.20;99.90
11599;DHT22;5855;48.840;9.188;2022-12-07T05:29:09;2.20;99.90
11599;DHT22;5855;48.840;9.188;2022-12-07T05:31:37;2.20;99.90
11599;DHT22;5855;48.840;9.188;2022-12-07T05:34:04;2.10;99.90
11599;DHT22;5855;48.840;9.188;2022-12-07T05:36:30;2.00;99.90
11599;DHT22;5855;48.840;9.188;2022-12-07T05:38:58;1.90;99.90
11599;DHT22;5855;48.840;9.188;2022-12-07T05:41:25;1.80;99.90
11599;DHT22;5855;48.840;9.188;2022-12-07T05:44:11;1.70;99.90
11599;DHT22;5855;48.840;9.188;2022-12-07T05:46:38;1.70;99.90
11599;DHT22;5855;48.840;9.188;2022-12-07T05:49:04;1.70;99.90
11599;DHT22;5855;48.840;9.188;2022-12-07T05:51:31;1.60;99.90
11599;DHT22;5855;48.840;9.188;2022-12-07T05:53:58;1.70;99.90
11599;DHT22;5855;48.840;9.188;2022-12-07T05:56:25;1.70;99.90
11599;DHT22;5855;48.840;9.188;2022-12-07T05:58:53;1.70;99.90
11599;DHT22;5855;48.840;9.188;2022-12-07T06:01:44;1.80;99.90
11599;DHT22;5855;48.840;9.188;2022-12-07T06:04:11;1.90;99.90
11599;DHT22;5855;48.840;9.188;2022-12-07T06:06:37;1.90;99.90
11599;DHT22;5855;48.840;9.188;2022-12-07T06:09:04;1.90;99.90
11599;DHT22;5855;48.840;9.188;2022-12-07T06:11:31;1.90;99.90
11599;DHT22;5855;48.840;9.188;2022-12-07T06:14:16;1.90;99.90
11599;DHT22;5855;48.840;9.188;2022-12-07T06:16:44;1.90;99.90
11599;DHT22;5855;48.840;9.188;2022-12-07T06:19:11;2.00;99.90
11599;DHT22;5855;48.840;9.188;2022-12-07T06:21:38;2.00;99.90
11599;DHT22;5855;48.840;9.188;2022-12-07T06:24:05;2.00;99.90
11599;DHT22;5855;48.840;9.188;2022-12-07T06:26:32;2.00;99.90
11599;DHT22;5855;48.840;9.188;2022-12-07T06:28:59;2.10;99.90
11599;DHT22;5855;48.840;9.188;2022-12-07T06:31:25;2.00;99.90
11599;DHT22;5855;48.840;9.188;2022-12-07T06:33:58;2.00;99.90
11599;DHT22;5855;48.840;9.188;2022-12-07T06:36:25;2.10;99.90
11599;DHT22;5855;48.840;9.188;2022-12-07T06:38:52;2.10;99.90
11599;DHT22;5855;48.840;9.188;2022-12-07T06:41:19;2.10;99.90
11599;DHT22;5855;48.840;9.188;2022-12-07T06:43:46;2.10;99.90
11599;DHT22;5855;48.840;9.188;2022-12-07T06:46:13;2.20;99.90
11599;DHT22;5855;48.840;9.188;2022-12-07T06:48:40;2.20;99.90
11599;DHT22;5855;48.840;9.188;2022-12-07T06:51:09;2.20;99.90
11599;DHT22;5855;48.840;9.188;2022-12-07T06:53:36;2.30;99.90
11599;DHT22;5855;48.840;9.188;2022-12-07T06:56:04;2.30;99.90
11599;DHT22;5855;48.840;9.188;2022-12-07T06:58:31;2.30;99.90
11599;DHT22;5855;48.840;9.188;2022-12-07T07:00:58;2.30;99.90
11599;DHT22;5855;48.840;9.188;2022-12-07T07:03:25;2.40;99.90
11599;DHT22;5855;48.840;9.188;2022-12-07T07:05:51;2.50;99.90
11599;DHT22;5855;48.840;9.188;2022-12-07T07:08:19;2.50;99.90
11599;DHT22;5855;48.840;9.188;2022-12-07T07:10:46;2.50;99.90
11599;DHT22;5855;48.840;9.188;2022-12-07T07:13:13;2.50;99.90
11599;DHT22;5855;48.840;9.188;2022-12-07T07:15:40;2.50;99.90
11599;DHT22;5855;48.840;9.188;2022-12-07T07:18:07;2.50;99.90
11599;DHT22;5855;48.840;9.188;2022-12-07T07:20:34;2.50;99.90
11599;DHT22;5855;48.840;9.188;2022-12-07T07:23:01;2.50;99.90
11599;DHT22;5855;48.840;9.188;2022-12-07T07:25:29;2.50;99.90
11599;DHT22;5855;48.840;9.188;2022-12-07T07:27:56;2.50;99.90
11599;DHT22;5855;48.840;9.188;2022-12-07T07:30:23;2.60;99.90
11599;DHT22;5855;48.840;9.188;2022-12-07T07:32:50;2.60;99.90
11599;DHT22;5855;48.840;9.188;2022-12-07T07:35:17;2.70;99.90
11599;DHT22;5855;48.840;9.188;2022-12-07T07:37:44;2.70;99.90
11599;DHT22;5855;48.840;9.188;2022-12-07T07:40:11;2.80;99.90
11599;DHT22;5855;48.840;9.188;2022-12-07T07:42:39;2.90;99.90
11599;DHT22;5855;48.840;9.188;2022-12-07T07:45:07;2.90;99.90
11599;DHT22;5855;48.840;9.188;2022-12-07T07:47:34;3.00;99.90
11599;DHT22;5855;48.840;9.188;2022-12-07T07:50:01;3.00;99.90
11599;DHT22;5855;48.840;9.188;2022-12-07T07:52:27;3.00;99.90
11599;DHT22;5855;48.840;9.188;2022-12-07T07:54:54;3.00;99.90
11599;DHT22;5855;48.840;9.188;2022-12-07T07:57:21;3.00;99.90
11599;DHT22;5855;48.840;9.188;2022-12-07T07:59:49;3.00;99.90
11599;DHT22;5855;48.840;9.188;2022-12-07T08:02:18;3.10;99.90
11599;DHT22;5855;48.840;9.188;2022-12-07T08:04:45;3.10;99.90
11599;DHT22;5855;48.840;9.188;2022-12-07T08:07:13;3.10;99.90
11599;DHT22;5855;48.840;9.188;2022-12-07T08:09:40;3.10;99.90
11599;DHT22;5855;48.840;9.188;2022-12-07T08:12:07;3.20;99.90
11599;DHT22;5855;48.840;9.188;2022-12-07T08:14:34;3.30;99.90
11599;DHT22;5855;48.840;9.188;2022-12-07T08:17:02;3.40;99.90
11599;DHT22;5855;48.840;9.188;2022-12-07T08:19:29;3.50;99.90
11599;DHT22;5855;48.840;9.188;2022-12-07T08:21:56;3.50;99.90
11599;DHT22;5855;48.840;9.188;2022-12-07T08:24:23;3.60;99.90
11599;DHT22;5855;48.840;9.188;2022-12-07T08:26:50;3.70;99.90
11599;DHT22;5855;48.840;9.188;2022-12-07T08:29:17;3.80;99.90
11599;DHT22;5855;48.840;9.188;2022-12-07T08:31:45;3.90;99.90
11599;DHT22;5855;48.840;9.188;2022-12-07T08:34:13;4.00;99.90
11599;DHT22;5855;48.840;9.188;2022-12-07T08:36:40;4.00;99.90
11599;DHT22;5855;48.840;9.188;2022-12-07T08:39:07;4.10;99.90
11599;DHT22;5855;48.840;9.188;2022-12-07T08:41:34;4.10;99.90
11599;DHT22;5855;48.840;9.188;2022-12-07T08:44:00;4.30;99.90
11599;DHT22;5855;48.840;9.188;2022-12-07T08:46:31;4.40;99.90
11599;DHT22;5855;48.840;9.188;2022-12-07T08:49:03;4.40;99.90
11599;DHT22;5855;48.840;9.188;2022-12-07T08:51:32;4.40;99.90
11599;DHT22;5855;48.840;9.188;2022-12-07T08:54:02;4.60;99.90
11599;DHT22;5855;48.840;9.188;2022-12-07T08:56:30;4.60;99.90
11599;DHT22;5855;48.840;9.188;2022-12-07T08:58:59;4.60;99.90
11599;DHT22;5855;48.840;9.188;2022-12-07T09:01:26;4.60;99.90
11599;DHT22;5855;48.840;9.188;2022-12-07T09:03:53;4.70;99.90
11599;DHT22;5855;48.840;9.188;2022-12-07T09:06:20;4.80;99.90
11599;DHT22;5855;48.840;9.188;2022-12-07T09:08:51;4.80;99.90
11599;DHT22;5855;48.840;9.188;2022-12-07T09:11:19;4.80;99.90
11599;DHT22;5855;48.840;9.188;2022-12-07T09:13:46;4.90;99.90
11599;DHT22;5855;48.840;9.188;2022-12-07T09:16:13;4.80;99.90
11599;DHT22;5855;48.840;9.188;2022-12-07T09:18:40;4.90;99.90
11599;DHT22;5855;48.840;9.188;2022-12-07T09:21:07;5.00;99.90
11599;DHT22;5855;48.840;9.188;2022-12-07T09:23:34;5.00;99.90
11599;DHT22;5855;48.840;9.188;2022-12-07T09:26:03;5.10;99.90
11599;DHT22;5855;48.840;9.188;2022-12-07T09:28:31;5.10;99.90
11599;DHT22;5855;48.840;9.188;2022-12-07T09:30:58;5.10;99.90
11599;DHT22;5855;48.840;9.188;2022-12-07T09:33:25;5.20;99.90
11599;DHT22;5855;48.840;9.188;2022-12-07T09:35:52;5.30;99.90
11599;DHT22;5855;48.840;9.188;2022-12-07T09:38:20;5.40;99.90
11599;DHT22;5855;48.840;9.188;2022-12-07T09:40:47;5.50;99.90
11599;DHT22;5855;48.840;9.188;2022-12-07T09:43:17;5.70;99.90
11599;DHT22;5855;48.840;9.188;2022-12-07T09:45:46;5.60;99.90
11599;DHT22;5855;48.840;9.188;2022-12-07T09:48:18;5.70;99.90
11599;DHT22;5855;48.840;9.188;2022-12-07T09:50:47;5.80;99.90
11599;DHT22;5855;48.840;9.188;2022-12-07T09:53:18;5.60;99.90
11599;DHT22;5855;48.840;9.188;2022-12-07T09:55:47;5.70;99.90
11599;DHT22;5855;48.840;9.188;2022-12-07T09:58:20;5.90;99.90
11599;DHT22;5855;48.840;9.188;2022-12-07T10:00:48;6.10;99.90
11599;DHT22;5855;48.840;9.188;2022-12-07T10:03:15;6.20;99.90
11599;DHT22;5855;48.840;9.188;2022-12-07T10:05:44;6.30;99.90
11599;DHT22;5855;48.840;9.188;2022-12-07T10:08:12;6.10;99.90
11599;DHT22;5855;48.840;9.188;2022-12-07T10:10:41;6.20;99.90
11599;DHT22;5855;48.840;9.188;2022-12-07T10:13:09;6.30;99.90
11599;DHT22;5855;48.840;9.188;2022-12-07T10:15:47;6.20;99.90
11599;DHT22;5855;48.840;9.188;2022-12-07T10:18:20;6.20;99.90
11599;DHT22;5855;48.840;9.188;2022-12-07T10:21:01;6.20;99.90
11599;DHT22;5855;48.840;9.188;2022-12-07T10:23:28;6.10;99.90
11599;DHT22;5855;48.840;9.188;2022-12-07T10:25:55;5.90;99.90
11599;DHT22;5855;48.840;9.188;2022-12-07T10:28:22;5.90;99.90
11599;DHT22;5855;48.840;9.188;2022-12-07T10:30:54;5.70;99.90
11599;DHT22;5855;48.840;9.188;2022-12-07T10:33:30;5.80;99.90
11599;DHT22;5855;48.840;9.188;2022-12-07T10:35:58;5.80;99.90
11599;DHT22;5855;48.840;9.188;2022-12-07T10:38:27;5.70;99.90
11599;DHT22;5855;48.840;9.188;2022-12-07T10:41:06;5.60;99.90
11599;DHT22;5855;48.840;9.188;2022-12-07T10:43:33;5.60;99.90
11599;DHT22;5855;48.840;9.188;2022-12-07T10:46:28;5.50;99.90
11599;DHT22;5855;48.840;9.188;2022-12-07T10:49:03;5.50;99.90
11599;DHT22;5855;48.840;9.188;2022-12-07T10:51:41;5.60;99.90
11599;DHT22;5855;48.840;9.188;2022-12-07T10:54:17;5.60;99.90
11599;DHT22;5855;48.840;9.188;2022-12-07T10:57:01;5.60;99.90
11599;DHT22;5855;48.840;9.188;2022-12-07T10:59:49;5.70;99.90
11599;DHT22;5855;48.840;9.188;2022-12-07T11:02:50;5.80;99.90
11599;DHT22;5855;48.840;9.188;2022-12-07T11:05:25;5.80;99.90
11599;DHT22;5855;48.840;9.188;2022-12-07T11:08:02;5.90;99.90
11599;DHT22;5855;48.840;9.188;2022-12-07T11:10:39;6.10;99.90
11599;DHT22;5855;48.840;9.188;2022-12-07T11:13:24;6.00;99.90
11599;DHT22;5855;48.840;9.188;2022-12-07T11:16:09;5.90;99.90
11599;DHT22;5855;48.840;9.188;2022-12-07T11:18:46;5.90;99.90
11599;DHT22;5855;48.840;9.188;2022-12-07T11:21:20;5.80;99.90
11599;DHT22;5855;48.840;9.188;2022-12-07T11:23:55;5.70;99.90
11599;DHT22;5855;48.840;9.188;2022-12-07T11:26:38;5.70;99.90
11599;DHT22;5855;48.840;9.188;2022-12-07T11:32:17;5.70;99.90
11599;DHT22;5855;48.840;9.188;2022-12-07T11:34:59;5.70;99.90
11599;DHT22;5855;48.840;9.188;2022-12-07T11:37:32;5.70;99.90
11599;DHT22;5855;48.840;9.188;2022-12-07T11:40:01;5.60;99.90
11599;DHT22;5855;48.840;9.188;2022-12-07T11:42:33;5.50;99.90
11599;DHT22;5855;48.840;9.188;2022-12-07T11:45:12;5.40;99.90
11599;DHT22;5855;48.840;9.188;2022-12-07T11:47:46;5.40;99.90
11599;DHT22;5855;48.840;9.188;2022-12-07T11:50:26;5.40;99.90
11599;DHT22;5855;48.840;9.188;2022-12-07T11:52:56;5.40;99.90
11599;DHT22;5855;48.840;9.188;2022-12-07T11:55:29;5.50;99.90
11599;DHT22;5855;48.840;9.188;2022-12-07T11:58:03;5.50;99.90
11599;DHT22;5855;48.840;9.188;2022-12-07T12:00:31;5.50;99.90
11599;DHT22;5855;48.840;9.188;2022-12-07T12:03:01;5.40;99.90
11599;DHT22;5855;48.840;9.188;2022-12-07T12:05:30;5.50;99.90
11599;DHT22;5855;48.840;9.188;2022-12-07T12:08:03;5.50;99.90
11599;DHT22;5855;48.840;9.188;2022-12-07T12:10:42;5.60;99.90
11599;DHT22;5855;48.840;9.188;2022-12-07T12:13:28;5.50;99.90
11599;DHT22;5855;48.840;9.188;2022-12-07T12:16:08;5.40;99.90
11599;DHT22;5855;48.840;9.188;2022-12-07T12:18:56;5.50;99.90
11599;DHT22;5855;48.840;9.188;2022-12-07T12:21:30;5.60;99.90
11599;DHT22;5855;48.840;9.188;2022-12-07T12:24:00;5.60;99.90
11599;DHT22;5855;48.840;9.188;2022-12-07T12:26:30;5.60;99.90
11599;DHT22;5855;48.840;9.188;2022-12-07T12:28:59;5.60;99.90
11599;DHT22;5855;48.840;9.188;2022-12-07T12:31:36;5.60;99.90
11599;DHT22;5855;48.840;9.188;2022-12-07T12:34:31;5.70;99.90
11599;DHT22;5855;48.840;9.188;2022-12-07T12:37:00;5.70;99.90
11599;DHT22;5855;48.840;9.188;2022-12-07T12:39:27;5.70;99.90
11599;DHT22;5855;48.840;9.188;2022-12-07T12:41:58;5.70;99.90
11599;DHT22;5855;48.840;9.188;2022-12-07T12:47:56;5.90;99.90
11599;DHT22;5855;48.840;9.188;2022-12-07T12:50:26;5.90;99.90
11599;DHT22;5855;48.840;9.188;2022-12-07T12:53:03;6.00;99.90
11599;DHT22;5855;48.840;9.188;2022-12-07T12:58:41;5.80;99.90
11599;DHT22;5855;48.840;9.188;2022-12-07T13:01:42;5.60;99.90
11599;DHT22;5855;48.840;9.188;2022-12-07T13:04:21;5.60;99.90
11599;DHT22;5855;48.840;9.188;2022-12-07T13:06:50;5.70;99.90
11599;DHT22;5855;48.840;9.188;2022-12-07T13:09:21;5.80;99.90
11599;DHT22;5855;48.840;9.188;2022-12-07T13:11:50;5.70;99.90
11599;DHT22;5855;48.840;9.188;2022-12-07T13:14:52;5.80;99.90
11599;DHT22;5855;48.840;9.188;2022-12-07T13:17:58;5.70;99.90
11599;DHT22;5855;48.840;9.188;2022-12-07T13:20:54;5.70;99.90
11599;DHT22;5855;48.840;9.188;2022-12-07T13:23:30;5.70;99.90
11599;DHT22;5855;48.840;9.188;2022-12-07T13:26:16;5.60;99.90
11599;DHT22;5855;48.840;9.188;2022-12-07T13:28:47;5.60;99.90
11599;DHT22;5855;48.840;9.188;2022-12-07T13:31:31;5.60;99.90
11599;DHT22;5855;48.840;9.188;2022-12-07T13:33:59;5.40;99.90
11599;DHT22;5855;48.840;9.188;2022-12-07T13:36:29;5.40;99.90
11599;DHT22;5855;48.840;9.188;2022-12-07T13:38:58;5.40;99.90
11599;DHT22;5855;48.840;9.188;2022-12-07T13:41:29;5.30;99.90
11599;DHT22;5855;48.840;9.188;2022-12-07T13:44:01;5.30;99.90
11599;DHT22;5855;48.840;9.188;2022-12-07T13:46:35;5.30;99.90
11599;DHT22;5855;48.840;9.188;2022-12-07T13:49:16;5.30;99.90
11599;DHT22;5855;48.840;9.188;2022-12-07T13:51:43;5.30;99.90
11599;DHT22;5855;48.840;9.188;2022-12-07T13:54:12;5.30;99.90
11599;DHT22;5855;48.840;9.188;2022-12-07T13:56:41;5.40;99.90
11599;DHT22;5855;48.840;9.188;2022-12-07T13:59:13;5.40;99.90
11599;DHT22;5855;48.840;9.188;2022-12-07T14:01:45;5.50;99.90
11599;DHT22;5855;48.840;9.188;2022-12-07T14:04:19;5.60;99.90
11599;DHT22;5855;48.840;9.188;2022-12-07T14:06:54;5.80;99.90
11599;DHT22;5855;48.840;9.188;2022-12-07T14:09:22;5.90;99.90
11599;DHT22;5855;48.840;9.188;2022-12-07T14:11:56;6.00;99.90
11599;DHT22;5855;48.840;9.188;2022-12-07T14:14:25;6.80;99.90
11599;DHT22;5855;48.840;9.188;2022-12-07T14:17:02;8.60;99.90
11599;DHT22;5855;48.840;9.188;2022-12-07T14:19:45;10.90;99.90
11599;DHT22;5855;48.840;9.188;2022-12-07T14:22:30;13.10;99.90
11599;DHT22;5855;48.840;9.188;2022-12-07T14:25:00;12.70;99.90
11599;DHT22;5855;48.840;9.188;2022-12-07T14:27:31;12.10;99.90
11599;DHT22;5855;48.840;9.188;2022-12-07T14:29:59;11.30;99.90
11599;DHT22;5855;48.840;9.188;2022-12-07T14:32:28;10.30;99.90
11599;DHT22;5855;48.840;9.188;2022-12-07T14:35:01;9.80;99.90
11599;DHT22;5855;48.840;9.188;2022-12-07T14:37:29;9.00;99.90
11599;DHT22;5855;48.840;9.188;2022-12-07T14:39:57;8.50;99.90
11599;DHT22;5855;48.840;9.188;2022-12-07T14:42:26;7.90;99.90
11599;DHT22;5855;48.840;9.188;2022-12-07T14:44:55;7.40;99.90
11599;DHT22;5855;48.840;9.188;2022-12-07T14:47:22;7.10;99.90
11599;DHT22;5855;48.840;9.188;2022-12-07T14:49:49;6.50;99.90
11599;DHT22;5855;48.840;9.188;2022-12-07T14:52:19;6.30;99.90
11599;DHT22;5855;48.840;9.188;2022-12-07T14:54:47;6.20;99.90
11599;DHT22;5855;48.840;9.188;2022-12-07T14:57:13;6.00;99.90
11599;DHT22;5855;48.840;9.188;2022-12-07T14:59:40;5.90;99.90
11599;DHT22;5855;48.840;9.188;2022-12-07T15:02:11;5.90;99.90
11599;DHT22;5855;48.840;9.188;2022-12-07T15:04:39;5.70;99.90
11599;DHT22;5855;48.840;9.188;2022-12-07T15:07:10;5.60;99.90
11599;DHT22;5855;48.840;9.188;2022-12-07T15:09:39;5.50;99.90
11599;DHT22;5855;48.840;9.188;2022-12-07T15:12:06;5.40;99.90
11599;DHT22;5855;48.840;9.188;2022-12-07T15:14:33;5.30;99.90
11599;DHT22;5855;48.840;9.188;2022-12-07T15:17:00;5.30;99.90
11599;DHT22;5855;48.840;9.188;2022-12-07T15:19:28;5.10;99.90
11599;DHT22;5855;48.840;9.188;2022-12-07T15:21:56;5.20;99.90
11599;DHT22;5855;48.840;9.188;2022-12-07T15:24:23;5.20;99.90
11599;DHT22;5855;48.840;9.188;2022-12-07T15:26:50;5.20;99.90
11599;DHT22;5855;48.840;9.188;2022-12-07T15:29:17;5.10;99.90
11599;DHT22;5855;48.840;9.188;2022-12-07T15:31:44;5.00;99.90
11599;DHT22;5855;48.840;9.188;2022-12-07T15:34:11;4.90;99.90
11599;DHT22;5855;48.840;9.188;2022-12-07T15:36:39;4.90;99.90
11599;DHT22;5855;48.840;9.188;2022-12-07T15:39:06;4.90;99.90
11599;DHT22;5855;48.840;9.188;2022-12-07T15:41:33;4.80;99.90
11599;DHT22;5855;48.840;9.188;2022-12-07T15:44:01;4.70;99.90
11599;DHT22;5855;48.840;9.188;2022-12-07T15:46:45;4.70;99.90
11599;DHT22;5855;48.840;9.188;2022-12-07T15:49:14;4.60;99.90
11599;DHT22;5855;48.840;9.188;2022-12-07T15:51:44;4.40;99.90
11599;DHT22;5855;48.840;9.188;2022-12-07T15:54:13;4.40;99.90
11599;DHT22;5855;48.840;9.188;2022-12-07T15:56:42;4.40;99.90
11599;DHT22;5855;48.840;9.188;2022-12-07T15:59:09;4.40;99.90
11599;DHT22;5855;48.840;9.188;2022-12-07T16:01:36;4.40;99.90
11599;DHT22;5855;48.840;9.188;2022-12-07T16:04:02;4.30;99.90
11599;DHT22;5855;48.840;9.188;2022-12-07T16:06:29;4.20;99.90
11599;DHT22;5855;48.840;9.188;2022-12-07T16:08:58;4.10;99.90
11599;DHT22;5855;48.840;9.188;2022-12-07T16:11:25;4.10;99.90
11599;DHT22;5855;48.840;9.188;2022-12-07T16:13:51;4.00;99.90
11599;DHT22;5855;48.840;9.188;2022-12-07T16:16:19;3.90;99.90
11599;DHT22;5855;48.840;9.188;2022-12-07T16:18:47;4.00;99.90
11599;DHT22;5855;48.840;9.188;2022-12-07T16:21:16;4.00;99.90
11599;DHT22;5855;48.840;9.188;2022-12-07T16:23:46;3.90;99.90
11599;DHT22;5855;48.840;9.188;2022-12-07T16:26:16;3.90;99.90
11599;DHT22;5855;48.840;9.188;2022-12-07T16:28:44;3.80;99.90
11599;DHT22;5855;48.840;9.188;2022-12-07T16:31:13;3.80;99.90
11599;DHT22;5855;48.840;9.188;2022-12-07T16:33:42;3.70;99.90
11599;DHT22;5855;48.840;9.188;2022-12-07T16:36:10;3.60;99.90
11599;DHT22;5855;48.840;9.188;2022-12-07T16:38:37;3.60;99.90
11599;DHT22;5855;48.840;9.188;2022-12-07T16:41:05;3.50;99.90